sensor_id;sensor_type;location;lat;lon;timestamp;temperature;humidity
28438;DHT22;15667;52.376;9.708;2022-08-18T00:04:31;21.30;99.90
28438;DHT22;15667;52.376;9.708;2022-08-18T00:06:57;21.50;99.90
28438;DHT22;15667;52.376;9.708;2022-08-18T00:09:23;21.60;99.90
28438;DHT22;15667;52.376;9.708;2022-08-18T00:11:49;21.50;99.90
28438;DHT22;15667;52.376;9.708;2022-08-18T00:14:18;21.40;99.90
28438;DHT22;15667;52.376;9.708;2022-08-18T00:16:44;21.40;99.90
28438;DHT22;15667;52.376;9.708;2022-08-18T00:19:10;21.40;99.90
28438;DHT22;15667;52.376;9.708;2022-08-18T00:21:36;21.40;99.90
28438;DHT22;15667;52.376;9.708;2022-08-18T00:24:02;21.50;99.90
28438;DHT22;15667;52.376;9.708;2022-08-18T00:26:28;21.50;99.90
28438;DHT22;15667;52.376;9.708;2022-08-18T00:28:54;21.50;99.90
28438;DHT22;15667;52.376;9.708;2022-08-18T00:31:20;21.40;99.90
28438;DHT22;15667;52.376;9.708;2022-08-18T00:33:45;21.50;99.90
28438;DHT22;15667;52.376;9.708;2022-08-18T00:36:11;21.40;99.90
28438;DHT22;15667;52.376;9.708;2022-08-18T00:38:37;21.50;99.90
28438;DHT22;15667;52.376;9.708;2022-08-18T00:41:03;21.50;99.90
28438;DHT22;15667;52.376;9.708;2022-08-18T00:43:44;21.40;99.90
28438;DHT22;15667;52.376;9.708;2022-08-18T00:46:20;21.40;99.90
28438;DHT22;15667;52.376;9.708;2022-08-18T00:48:46;21.40;99.90
28438;DHT22;15667;52.376;9.708;2022-08-18T00:51:25;21.40;99.90
28438;DHT22;15667;52.376;9.708;2022-08-18T00:56:34;21.30;99.90
28438;DHT22;15667;52.376;9.708;2022-08-18T01:01:35;21.10;99.90
28438;DHT22;15667;52.376;9.708;2022-08-18T01:04:08;21.20;99.90
28438;DHT22;15667;52.376;9.708;2022-08-18T01:06:48;21.20;99.90
28438;DHT22;15667;52.376;9.708;2022-08-18T01:09:16;21.20;99.90
28438;DHT22;15667;52.376;9.708;2022-08-18T01:11:42;21.10;99.90
28438;DHT22;15667;52.376;9.708;2022-08-18T01:14:09;21.10;99.90
28438;DHT22;15667;52.376;9.708;2022-08-18T01:16:36;21.10;99.90
28438;DHT22;15667;52.376;9.708;2022-08-18T01:19:21;21.10;99.90
28438;DHT22;15667;52.376;9.708;2022-08-18T01:23:09;21.10;99.90
28438;DHT22;15667;52.376;9.708;2022-08-18T01:25:24;21.10;99.90
28438;DHT22;15667;52.376;9.708;2022-08-18T01:28:09;21.10;99.90
28438;DHT22;15667;52.376;9.708;2022-08-18T01:30:49;21.10;99.90
28438;DHT22;15667;52.376;9.708;2022-08-18T01:33:16;21.10;99.90
28438;DHT22;15667;52.376;9.708;2022-08-18T01:35:46;21.20;99.90
28438;DHT22;15667;52.376;9.708;2022-08-18T01:38:17;21.00;99.90
28438;DHT22;15667;52.376;9.708;2022-08-18T01:40:44;21.00;99.90
28438;DHT22;15667;52.376;9.708;2022-08-18T01:43:11;21.00;99.90
28438;DHT22;15667;52.376;9.708;2022-08-18T01:45:37;20.90;99.90
28438;DHT22;15667;52.376;9.708;2022-08-18T01:48:03;20.90;99.90
28438;DHT22;15667;52.376;9.708;2022-08-18T01:50:29;21.00;99.90
28438;DHT22;15667;52.376;9.708;2022-08-18T01:52:58;20.90;99.90
28438;DHT22;15667;52.376;9.708;2022-08-18T01:55:25;20.90;99.90
28438;DHT22;15667;52.376;9.708;2022-08-18T01:57:53;20.90;99.90
28438;DHT22;15667;52.376;9.708;2022-08-18T02:00:19;20.80;99.90
28438;DHT22;15667;52.376;9.708;2022-08-18T02:02:46;20.70;99.90
28438;DHT22;15667;52.376;9.708;2022-08-18T02:05:18;20.70;99.90
28438;DHT22;15667;52.376;9.708;2022-08-18T02:07:46;20.80;99.90
28438;DHT22;15667;52.376;9.708;2022-08-18T02:10:12;20.90;99.90
28438;DHT22;15667;52.376;9.708;2022-08-18T02:12:39;21.00;99.90
28438;DHT22;15667;52.376;9.708;2022-08-18T02:15:05;20.90;99.90
28438;DHT22;15667;52.376;9.708;2022-08-18T02:17:43;21.00;99.90
28438;DHT22;15667;52.376;9.708;2022-08-18T02:20:12;20.90;99.90
28438;DHT22;15667;52.376;9.708;2022-08-18T02:22:41;20.90;99.90
28438;DHT22;15667;52.376;9.708;2022-08-18T02:25:07;20.80;99.90
28438;DHT22;15667;52.376;9.708;2022-08-18T02:27:33;20.80;99.90
28438;DHT22;15667;52.376;9.708;2022-08-18T02:30:00;20.80;99.90
28438;DHT22;15667;52.376;9.708;2022-08-18T02:32:27;20.70;99.90
28438;DHT22;15667;52.376;9.708;2022-08-18T02:34:53;20.80;99.90
28438;DHT22;15667;52.376;9.708;2022-08-18T02:37:18;20.70;99.90
28438;DHT22;15667;52.376;9.708;2022-08-18T02:39:44;20.70;99.90
28438;DHT22;15667;52.376;9.708;2022-08-18T02:42:10;20.70;99.90
28438;DHT22;15667;52.376;9.708;2022-08-18T02:44:37;20.70;99.90
28438;DHT22;15667;52.376;9.708;2022-08-18T02:47:03;20.60;99.90
28438;DHT22;15667;52.376;9.708;2022-08-18T02:49:29;20.60;99.90
28438;DHT22;15667;52.376;9.708;2022-08-18T02:51:54;20.60;99.90
28438;DHT22;15667;52.376;9.708;2022-08-18T02:54:21;20.60;99.90
28438;DHT22;15667;52.376;9.708;2022-08-18T02:56:48;20.50;99.90
28438;DHT22;15667;52.376;9.708;2022-08-18T02:59:18;20.60;99.90
28438;DHT22;15667;52.376;9.708;2022-08-18T03:01:47;20.60;99.90
28438;DHT22;15667;52.376;9.708;2022-08-18T03:04:16;20.60;99.90
28438;DHT22;15667;52.376;9.708;2022-08-18T03:06:44;20.60;99.90
28438;DHT22;15667;52.376;9.708;2022-08-18T03:09:11;20.50;99.90
28438;DHT22;15667;52.376;9.708;2022-08-18T03:11:37;20.50;99.90
28438;DHT22;15667;52.376;9.708;2022-08-18T03:14:03;20.40;99.90
28438;DHT22;15667;52.376;9.708;2022-08-18T03:16:30;20.40;99.90
28438;DHT22;15667;52.376;9.708;2022-08-18T03:18:58;20.50;99.90
28438;DHT22;15667;52.376;9.708;2022-08-18T03:21:25;20.50;99.90
28438;DHT22;15667;52.376;9.708;2022-08-18T03:23:53;20.50;99.90
28438;DHT22;15667;52.376;9.708;2022-08-18T03:26:20;20.50;99.90
28438;DHT22;15667;52.376;9.708;2022-08-18T03:28:49;20.50;99.90
28438;DHT22;15667;52.376;9.708;2022-08-18T03:31:16;20.50;99.90
28438;DHT22;15667;52.376;9.708;2022-08-18T03:33:45;20.50;99.90
28438;DHT22;15667;52.376;9.708;2022-08-18T03:36:22;20.50;99.90
28438;DHT22;15667;52.376;9.708;2022-08-18T03:38:49;20.50;99.90
28438;DHT22;15667;52.376;9.708;2022-08-18T03:41:17;20.40;99.90
28438;DHT22;15667;52.376;9.708;2022-08-18T03:43:43;20.40;99.90
28438;DHT22;15667;52.376;9.708;2022-08-18T03:46:11;19.20;99.90
28438;DHT22;15667;52.376;9.708;2022-08-18T03:48:38;20.30;99.90
28438;DHT22;15667;52.376;9.708;2022-08-18T03:51:09;20.30;99.90
28438;DHT22;15667;52.376;9.708;2022-08-18T03:53:38;20.30;99.90
28438;DHT22;15667;52.376;9.708;2022-08-18T03:56:09;20.30;99.90
28438;DHT22;15667;52.376;9.708;2022-08-18T03:58:40;20.30;99.90
28438;DHT22;15667;52.376;9.708;2022-08-18T04:01:06;20.20;99.90
28438;DHT22;15667;52.376;9.708;2022-08-18T04:03:32;20.20;99.90
28438;DHT22;15667;52.376;9.708;2022-08-18T04:05:58;20.10;99.90
28438;DHT22;15667;52.376;9.708;2022-08-18T04:08:23;20.00;99.90
28438;DHT22;15667;52.376;9.708;2022-08-18T04:10:49;20.10;99.90
28438;DHT22;15667;52.376;9.708;2022-08-18T04:13:14;20.10;99.90
28438;DHT22;15667;52.376;9.708;2022-08-18T04:15:40;20.10;99.90
28438;DHT22;15667;52.376;9.708;2022-08-18T04:18:06;20.10;99.90
28438;DHT22;15667;52.376;9.708;2022-08-18T04:20:33;20.10;99.90
28438;DHT22;15667;52.376;9.708;2022-08-18T04:23:00;20.00;99.90
28438;DHT22;15667;52.376;9.708;2022-08-18T04:25:25;20.10;99.90
28438;DHT22;15667;52.376;9.708;2022-08-18T04:27:52;20.00;99.90
28438;DHT22;15667;52.376;9.708;2022-08-18T04:30:24;19.10;99.90
28438;DHT22;15667;52.376;9.708;2022-08-18T04:32:50;19.80;99.90
28438;DHT22;15667;52.376;9.708;2022-08-18T04:35:16;19.90;99.90
28438;DHT22;15667;52.376;9.708;2022-08-18T04:37:42;19.90;99.90
28438;DHT22;15667;52.376;9.708;2022-08-18T04:40:09;19.90;99.90
28438;DHT22;15667;52.376;9.708;2022-08-18T04:42:34;19.80;99.90
28438;DHT22;15667;52.376;9.708;2022-08-18T04:45:00;19.60;99.90
28438;DHT22;15667;52.376;9.708;2022-08-18T04:47:26;19.60;99.90
28438;DHT22;15667;52.376;9.708;2022-08-18T04:49:57;19.50;99.90
28438;DHT22;15667;52.376;9.708;2022-08-18T04:52:24;19.60;99.90
28438;DHT22;15667;52.376;9.708;2022-08-18T04:55:09;19.60;99.90
28438;DHT22;15667;52.376;9.708;2022-08-18T04:57:35;19.60;99.90
28438;DHT22;15667;52.376;9.708;2022-08-18T05:00:03;19.90;99.90
28438;DHT22;15667;52.376;9.708;2022-08-18T05:02:30;18.30;99.90
28438;DHT22;15667;52.376;9.708;2022-08-18T05:04:57;20.00;99.90
28438;DHT22;15667;52.376;9.708;2022-08-18T05:07:22;19.80;99.90
28438;DHT22;15667;52.376;9.708;2022-08-18T05:09:49;19.90;99.90
28438;DHT22;15667;52.376;9.708;2022-08-18T05:12:17;19.90;99.90
28438;DHT22;15667;52.376;9.708;2022-08-18T05:14:44;20.00;99.90
28438;DHT22;15667;52.376;9.708;2022-08-18T05:17:12;19.90;99.90
28438;DHT22;15667;52.376;9.708;2022-08-18T05:19:38;21.00;99.90
28438;DHT22;15667;52.376;9.708;2022-08-18T05:22:04;19.10;99.90
28438;DHT22;15667;52.376;9.708;2022-08-18T05:24:32;20.00;99.90
28438;DHT22;15667;52.376;9.708;2022-08-18T05:27:00;20.00;99.90
28438;DHT22;15667;52.376;9.708;2022-08-18T05:29:28;19.70;99.90
28438;DHT22;15667;52.376;9.708;2022-08-18T05:32:02;19.80;99.90
28438;DHT22;15667;52.376;9.708;2022-08-18T05:34:28;19.60;99.90
28438;DHT22;15667;52.376;9.708;2022-08-18T05:37:18;19.90;99.90
28438;DHT22;15667;52.376;9.708;2022-08-18T05:42:22;19.90;99.90
28438;DHT22;15667;52.376;9.708;2022-08-18T05:44:51;19.90;99.90
28438;DHT22;15667;52.376;9.708;2022-08-18T05:47:23;19.80;99.90
28438;DHT22;15667;52.376;9.708;2022-08-18T05:49:50;19.80;99.90
28438;DHT22;15667;52.376;9.708;2022-08-18T05:52:31;20.00;99.90
28438;DHT22;15667;52.376;9.708;2022-08-18T05:55:02;20.00;99.90
28438;DHT22;15667;52.376;9.708;2022-08-18T05:57:54;20.20;99.90
28438;DHT22;15667;52.376;9.708;2022-08-18T06:00:21;20.20;99.90
28438;DHT22;15667;52.376;9.708;2022-08-18T06:03:05;20.10;99.90
28438;DHT22;15667;52.376;9.708;2022-08-18T06:05:53;20.30;99.90
28438;DHT22;15667;52.376;9.708;2022-08-18T06:08:24;20.40;99.90
28438;DHT22;15667;52.376;9.708;2022-08-18T06:10:52;20.50;99.90
28438;DHT22;15667;52.376;9.708;2022-08-18T06:13:19;20.60;99.90
28438;DHT22;15667;52.376;9.708;2022-08-18T06:15:53;20.60;99.90
28438;DHT22;15667;52.376;9.708;2022-08-18T06:24:06;20.70;99.90
28438;DHT22;15667;52.376;9.708;2022-08-18T06:35:45;20.40;99.90
28438;DHT22;15667;52.376;9.708;2022-08-18T06:41:13;20.40;99.90
28438;DHT22;15667;52.376;9.708;2022-08-18T06:43:58;20.50;99.90
28438;DHT22;15667;52.376;9.708;2022-08-18T06:46:41;20.30;99.90
28438;DHT22;15667;52.376;9.708;2022-08-18T06:49:12;20.40;99.90
28438;DHT22;15667;52.376;9.708;2022-08-18T06:51:39;20.50;99.90
28438;DHT22;15667;52.376;9.708;2022-08-18T06:54:29;20.50;99.90
28438;DHT22;15667;52.376;9.708;2022-08-18T06:56:55;20.50;99.90
28438;DHT22;15667;52.376;9.708;2022-08-18T06:59:29;20.50;99.90
28438;DHT22;15667;52.376;9.708;2022-08-18T07:02:09;20.40;99.90
28438;DHT22;15667;52.376;9.708;2022-08-18T07:04:56;20.50;99.90
28438;DHT22;15667;52.376;9.708;2022-08-18T07:07:38;20.60;99.90
28438;DHT22;15667;52.376;9.708;2022-08-18T07:10:27;20.60;99.90
28438;DHT22;15667;52.376;9.708;2022-08-18T07:15:36;20.40;99.90
28438;DHT22;15667;52.376;9.708;2022-08-18T07:18:06;20.40;99.90
28438;DHT22;15667;52.376;9.708;2022-08-18T07:20:48;20.50;99.90
28438;DHT22;15667;52.376;9.708;2022-08-18T07:26:16;20.10;99.90
28438;DHT22;15667;52.376;9.708;2022-08-18T07:28:51;20.30;99.90
28438;DHT22;15667;52.376;9.708;2022-08-18T07:33:54;20.40;99.90
28438;DHT22;15667;52.376;9.708;2022-08-18T07:36:23;20.30;99.90
28438;DHT22;15667;52.376;9.708;2022-08-18T07:38:57;20.40;99.90
28438;DHT22;15667;52.376;9.708;2022-08-18T07:42:16;20.40;99.90
28438;DHT22;15667;52.376;9.708;2022-08-18T07:47:34;20.60;99.90
28438;DHT22;15667;52.376;9.708;2022-08-18T07:50:05;20.60;99.90
28438;DHT22;15667;52.376;9.708;2022-08-18T07:52:36;20.60;99.90
28438;DHT22;15667;52.376;9.708;2022-08-18T07:55:28;20.70;99.90
28438;DHT22;15667;52.376;9.708;2022-08-18T08:01:02;20.80;99.90
28438;DHT22;15667;52.376;9.708;2022-08-18T08:08:42;21.10;99.90
28438;DHT22;15667;52.376;9.708;2022-08-18T08:14:46;21.10;99.90
28438;DHT22;15667;52.376;9.708;2022-08-18T08:17:44;21.10;99.90
28438;DHT22;15667;52.376;9.708;2022-08-18T08:20:20;21.20;99.90
28438;DHT22;15667;52.376;9.708;2022-08-18T08:23:15;23.10;99.90
28438;DHT22;15667;52.376;9.708;2022-08-18T08:25:59;21.40;99.90
28438;DHT22;15667;52.376;9.708;2022-08-18T08:31:09;21.10;99.90
28438;DHT22;15667;52.376;9.708;2022-08-18T08:33:53;21.20;99.90
28438;DHT22;15667;52.376;9.708;2022-08-18T08:36:27;21.20;99.90
28438;DHT22;15667;52.376;9.708;2022-08-18T08:41:52;21.00;99.90
28438;DHT22;15667;52.376;9.708;2022-08-18T08:44:30;21.10;99.90
28438;DHT22;15667;52.376;9.708;2022-08-18T08:50:03;21.60;99.90
28438;DHT22;15667;52.376;9.708;2022-08-18T08:55:24;21.90;99.90
28438;DHT22;15667;52.376;9.708;2022-08-18T08:58:51;22.10;99.90
28438;DHT22;15667;52.376;9.708;2022-08-18T09:00:58;22.30;99.90
28438;DHT22;15667;52.376;9.708;2022-08-18T09:03:34;22.70;99.90
28438;DHT22;15667;52.376;9.708;2022-08-18T09:08:57;22.70;99.90
28438;DHT22;15667;52.376;9.708;2022-08-18T09:11:43;22.60;99.90
28438;DHT22;15667;52.376;9.708;2022-08-18T09:28:20;23.00;99.90
28438;DHT22;15667;52.376;9.708;2022-08-18T09:41:55;22.90;99.90
28438;DHT22;15667;52.376;9.708;2022-08-18T09:59:56;22.90;99.90
28438;DHT22;15667;52.376;9.708;2022-08-18T10:05:25;23.30;99.90
28438;DHT22;15667;52.376;9.708;2022-08-18T10:10:47;23.50;99.90
28438;DHT22;15667;52.376;9.708;2022-08-18T10:13:23;23.60;99.90
28438;DHT22;15667;52.376;9.708;2022-08-18T10:21:13;24.00;99.90
28438;DHT22;15667;52.376;9.708;2022-08-18T10:34:51;24.10;99.90
28438;DHT22;15667;52.376;9.708;2022-08-18T10:39:46;24.40;99.90
28438;DHT22;15667;52.376;9.708;2022-08-18T10:42:26;24.40;99.90
28438;DHT22;15667;52.376;9.708;2022-08-18T10:44:59;24.70;99.90
28438;DHT22;15667;52.376;9.708;2022-08-18T10:47:29;24.80;99.90
28438;DHT22;15667;52.376;9.708;2022-08-18T10:50:06;24.70;99.90
28438;DHT22;15667;52.376;9.708;2022-08-18T10:55:59;24.60;99.90
28438;DHT22;15667;52.376;9.708;2022-08-18T11:01:14;25.30;99.90
28438;DHT22;15667;52.376;9.708;2022-08-18T11:04:05;25.30;99.90
28438;DHT22;15667;52.376;9.708;2022-08-18T11:06:46;25.50;99.90
28438;DHT22;15667;52.376;9.708;2022-08-18T11:09:23;26.10;99.90
28438;DHT22;15667;52.376;9.708;2022-08-18T11:11:54;26.30;99.90
28438;DHT22;15667;52.376;9.708;2022-08-18T11:14:41;26.20;99.90
28438;DHT22;15667;52.376;9.708;2022-08-18T11:17:40;26.10;99.90
28438;DHT22;15667;52.376;9.708;2022-08-18T11:20:11;25.70;99.90
28438;DHT22;15667;52.376;9.708;2022-08-18T11:22:37;25.80;99.90
28438;DHT22;15667;52.376;9.708;2022-08-18T11:25:19;25.90;99.90
28438;DHT22;15667;52.376;9.708;2022-08-18T11:27:47;25.80;99.90
28438;DHT22;15667;52.376;9.708;2022-08-18T11:30:13;25.70;99.90
28438;DHT22;15667;52.376;9.708;2022-08-18T11:32:40;25.50;99.90
28438;DHT22;15667;52.376;9.708;2022-08-18T11:35:13;25.50;99.90
28438;DHT22;15667;52.376;9.708;2022-08-18T11:45:22;26.20;99.90
28438;DHT22;15667;52.376;9.708;2022-08-18T11:58:46;26.30;99.90
28438;DHT22;15667;52.376;9.708;2022-08-18T12:06:50;26.80;99.90
28438;DHT22;15667;52.376;9.708;2022-08-18T12:09:35;26.90;99.90
28438;DHT22;15667;52.376;9.708;2022-08-18T12:14:34;26.90;99.90
28438;DHT22;15667;52.376;9.708;2022-08-18T12:17:14;26.90;99.90
28438;DHT22;15667;52.376;9.708;2022-08-18T12:19:42;26.70;99.90
28438;DHT22;15667;52.376;9.708;2022-08-18T12:22:20;26.70;99.90
28438;DHT22;15667;52.376;9.708;2022-08-18T12:24:47;26.90;99.90
28438;DHT22;15667;52.376;9.708;2022-08-18T12:27:14;27.00;99.90
28438;DHT22;15667;52.376;9.708;2022-08-18T12:29:42;27.00;99.90
28438;DHT22;15667;52.376;9.708;2022-08-18T12:32:08;27.00;99.90
28438;DHT22;15667;52.376;9.708;2022-08-18T12:34:34;27.20;99.90
28438;DHT22;15667;52.376;9.708;2022-08-18T12:37:01;27.30;99.90
28438;DHT22;15667;52.376;9.708;2022-08-18T12:39:30;27.20;99.90
28438;DHT22;15667;52.376;9.708;2022-08-18T12:41:56;27.50;99.90
28438;DHT22;15667;52.376;9.708;2022-08-18T12:44:23;27.50;99.90
28438;DHT22;15667;52.376;9.708;2022-08-18T12:46:49;27.40;99.90
28438;DHT22;15667;52.376;9.708;2022-08-18T12:49:23;27.30;99.90
28438;DHT22;15667;52.376;9.708;2022-08-18T12:51:50;27.10;99.90
28438;DHT22;15667;52.376;9.708;2022-08-18T12:54:17;27.00;99.90
28438;DHT22;15667;52.376;9.708;2022-08-18T12:56:47;26.70;99.90
28438;DHT22;15667;52.376;9.708;2022-08-18T12:59:13;26.40;99.90
28438;DHT22;15667;52.376;9.708;2022-08-18T13:01:39;26.30;99.90
28438;DHT22;15667;52.376;9.708;2022-08-18T13:04:05;26.40;99.90
28438;DHT22;15667;52.376;9.708;2022-08-18T13:06:34;26.50;99.90
28438;DHT22;15667;52.376;9.708;2022-08-18T13:09:01;26.50;99.90
28438;DHT22;15667;52.376;9.708;2022-08-18T13:11:26;26.80;99.90
28438;DHT22;15667;52.376;9.708;2022-08-18T13:13:53;27.00;99.90
28438;DHT22;15667;52.376;9.708;2022-08-18T13:16:19;26.80;99.90
28438;DHT22;15667;52.376;9.708;2022-08-18T13:18:45;27.00;99.90
28438;DHT22;15667;52.376;9.708;2022-08-18T13:21:13;26.90;99.90
28438;DHT22;15667;52.376;9.708;2022-08-18T13:23:39;26.90;99.90
28438;DHT22;15667;52.376;9.708;2022-08-18T13:26:06;27.00;99.90
28438;DHT22;15667;52.376;9.708;2022-08-18T13:28:34;27.10;99.90
28438;DHT22;15667;52.376;9.708;2022-08-18T13:31:00;27.20;99.90
28438;DHT22;15667;52.376;9.708;2022-08-18T13:33:27;27.00;99.90
28438;DHT22;15667;52.376;9.708;2022-08-18T13:35:53;27.30;99.90
28438;DHT22;15667;52.376;9.708;2022-08-18T13:38:19;28.00;99.90
28438;DHT22;15667;52.376;9.708;2022-08-18T13:40:48;28.40;99.90
28438;DHT22;15667;52.376;9.708;2022-08-18T13:43:16;28.70;99.90
28438;DHT22;15667;52.376;9.708;2022-08-18T13:45:45;28.90;99.90
28438;DHT22;15667;52.376;9.708;2022-08-18T13:48:14;29.10;99.90
28438;DHT22;15667;52.376;9.708;2022-08-18T13:50:40;28.90;99.90
28438;DHT22;15667;52.376;9.708;2022-08-18T13:53:25;28.70;99.90
28438;DHT22;15667;52.376;9.708;2022-08-18T13:55:52;29.00;99.90
28438;DHT22;15667;52.376;9.708;2022-08-18T13:58:18;28.80;99.90
28438;DHT22;15667;52.376;9.708;2022-08-18T14:00:44;29.00;99.90
28438;DHT22;15667;52.376;9.708;2022-08-18T14:03:15;28.60;99.90
28438;DHT22;15667;52.376;9.708;2022-08-18T14:05:40;28.00;99.90
28438;DHT22;15667;52.376;9.708;2022-08-18T14:08:10;27.60;99.90
28438;DHT22;15667;52.376;9.708;2022-08-18T14:10:36;27.90;99.90
28438;DHT22;15667;52.376;9.708;2022-08-18T14:13:03;26.40;99.90
28438;DHT22;15667;52.376;9.708;2022-08-18T14:15:32;27.70;99.90
28438;DHT22;15667;52.376;9.708;2022-08-18T14:18:02;27.30;99.90
28438;DHT22;15667;52.376;9.708;2022-08-18T14:20:28;27.30;99.90
28438;DHT22;15667;52.376;9.708;2022-08-18T14:23:13;27.00;99.90
28438;DHT22;15667;52.376;9.708;2022-08-18T14:25:57;27.00;99.90
28438;DHT22;15667;52.376;9.708;2022-08-18T14:28:41;26.70;99.90
28438;DHT22;15667;52.376;9.708;2022-08-18T14:31:06;26.50;99.90
28438;DHT22;15667;52.376;9.708;2022-08-18T14:33:33;26.70;99.90
28438;DHT22;15667;52.376;9.708;2022-08-18T14:36:02;26.70;99.90
28438;DHT22;15667;52.376;9.708;2022-08-18T14:38:30;26.60;99.90
28438;DHT22;15667;52.376;9.708;2022-08-18T14:41:00;26.70;99.90
28438;DHT22;15667;52.376;9.708;2022-08-18T14:43:29;26.50;99.90
28438;DHT22;15667;52.376;9.708;2022-08-18T14:45:56;26.50;99.90
28438;DHT22;15667;52.376;9.708;2022-08-18T14:48:21;26.60;99.90
28438;DHT22;15667;52.376;9.708;2022-08-18T14:50:54;26.70;99.90
28438;DHT22;15667;52.376;9.708;2022-08-18T14:53:22;26.70;99.90
28438;DHT22;15667;52.376;9.708;2022-08-18T14:55:50;26.80;99.90
28438;DHT22;15667;52.376;9.708;2022-08-18T14:58:24;26.70;99.90
28438;DHT22;15667;52.376;9.708;2022-08-18T15:00:58;26.70;99.90
28438;DHT22;15667;52.376;9.708;2022-08-18T15:03:29;28.60;99.90
28438;DHT22;15667;52.376;9.708;2022-08-18T15:05:55;26.60;99.90
28438;DHT22;15667;52.376;9.708;2022-08-18T15:08:21;26.50;99.90
28438;DHT22;15667;52.376;9.708;2022-08-18T15:10:47;26.40;99.90
28438;DHT22;15667;52.376;9.708;2022-08-18T15:13:13;26.50;99.90
28438;DHT22;15667;52.376;9.708;2022-08-18T15:15:39;26.50;99.90
28438;DHT22;15667;52.376;9.708;2022-08-18T15:18:06;26.40;99.90
28438;DHT22;15667;52.376;9.708;2022-08-18T15:20:32;26.20;99.90
28438;DHT22;15667;52.376;9.708;2022-08-18T15:23:02;26.30;99.90
28438;DHT22;15667;52.376;9.708;2022-08-18T15:25:48;26.30;99.90
28438;DHT22;15667;52.376;9.708;2022-08-18T15:28:21;26.20;99.90
28438;DHT22;15667;52.376;9.708;2022-08-18T15:30:49;26.10;99.90
28438;DHT22;15667;52.376;9.708;2022-08-18T15:33:15;26.10;99.90
28438;DHT22;15667;52.376;9.708;2022-08-18T15:35:42;25.90;99.90
28438;DHT22;15667;52.376;9.708;2022-08-18T15:38:09;25.80;99.90
28438;DHT22;15667;52.376;9.708;2022-08-18T15:40:50;25.80;99.90
28438;DHT22;15667;52.376;9.708;2022-08-18T15:43:16;25.60;99.90
28438;DHT22;15667;52.376;9.708;2022-08-18T15:45:46;23.50;99.90
28438;DHT22;15667;52.376;9.708;2022-08-18T15:48:17;25.50;99.90
28438;DHT22;15667;52.376;9.708;2022-08-18T15:50:45;25.30;99.90
28438;DHT22;15667;52.376;9.708;2022-08-18T15:53:16;25.40;99.90
28438;DHT22;15667;52.376;9.708;2022-08-18T15:55:45;25.30;99.90
28438;DHT22;15667;52.376;9.708;2022-08-18T15:58:11;24.80;99.90
28438;DHT22;15667;52.376;9.708;2022-08-18T16:00:40;25.20;99.90
28438;DHT22;15667;52.376;9.708;2022-08-18T16:03:09;26.70;99.90
28438;DHT22;15667;52.376;9.708;2022-08-18T16:05:40;25.30;99.90
28438;DHT22;15667;52.376;9.708;2022-08-18T16:08:07;25.30;99.90
28438;DHT22;15667;52.376;9.708;2022-08-18T16:10:36;25.30;99.90
28438;DHT22;15667;52.376;9.708;2022-08-18T16:13:03;25.30;99.90
28438;DHT22;15667;52.376;9.708;2022-08-18T16:15:37;25.40;99.90
28438;DHT22;15667;52.376;9.708;2022-08-18T16:18:04;25.30;99.90
28438;DHT22;15667;52.376;9.708;2022-08-18T16:20:30;25.40;99.90
28438;DHT22;15667;52.376;9.708;2022-08-18T16:22:56;25.50;99.90
28438;DHT22;15667;52.376;9.708;2022-08-18T16:25:22;25.50;99.90
28438;DHT22;15667;52.376;9.708;2022-08-18T16:27:48;25.50;99.90
28438;DHT22;15667;52.376;9.708;2022-08-18T16:30:17;25.50;99.90
28438;DHT22;15667;52.376;9.708;2022-08-18T16:32:43;25.40;99.90
28438;DHT22;15667;52.376;9.708;2022-08-18T16:35:10;25.50;99.90
28438;DHT22;15667;52.376;9.708;2022-08-18T16:37:37;25.50;99.90
28438;DHT22;15667;52.376;9.708;2022-08-18T16:40:04;25.50;99.90
28438;DHT22;15667;52.376;9.708;2022-08-18T16:42:30;25.50;99.90
28438;DHT22;15667;52.376;9.708;2022-08-18T16:44:59;25.50;99.90
28438;DHT22;15667;52.376;9.708;2022-08-18T16:47:25;25.50;99.90
28438;DHT22;15667;52.376;9.708;2022-08-18T16:49:51;25.50;99.90
28438;DHT22;15667;52.376;9.708;2022-08-18T16:52:20;25.50;99.90
28438;DHT22;15667;52.376;9.708;2022-08-18T16:54:46;25.50;99.90
28438;DHT22;15667;52.376;9.708;2022-08-18T16:57:13;25.40;99.90
28438;DHT22;15667;52.376;9.708;2022-08-18T16:59:58;25.50;99.90
28438;DHT22;15667;52.376;9.708;2022-08-18T17:02:42;25.40;99.90
28438;DHT22;15667;52.376;9.708;2022-08-18T17:05:26;25.10;99.90
28438;DHT22;15667;52.376;9.708;2022-08-18T17:07:57;24.90;99.90
28438;DHT22;15667;52.376;9.708;2022-08-18T17:10:23;24.90;99.90
28438;DHT22;15667;52.376;9.708;2022-08-18T17:12:49;24.90;99.90
28438;DHT22;15667;52.376;9.708;2022-08-18T17:15:15;24.90;99.90
28438;DHT22;15667;52.376;9.708;2022-08-18T17:17:43;24.90;99.90
28438;DHT22;15667;52.376;9.708;2022-08-18T17:20:10;24.80;99.90
28438;DHT22;15667;52.376;9.708;2022-08-18T17:22:35;24.80;99.90
28438;DHT22;15667;52.376;9.708;2022-08-18T17:25:02;24.80;99.90
28438;DHT22;15667;52.376;9.708;2022-08-18T17:27:31;23.60;99.90
28438;DHT22;15667;52.376;9.708;2022-08-18T17:30:05;24.80;99.90
28438;DHT22;15667;52.376;9.708;2022-08-18T17:32:46;24.80;99.90
28438;DHT22;15667;52.376;9.708;2022-08-18T17:35:33;24.80;99.90
28438;DHT22;15667;52.376;9.708;2022-08-18T17:40:51;24.80;99.90
28438;DHT22;15667;52.376;9.708;2022-08-18T17:43:29;24.80;99.90
28438;DHT22;15667;52.376;9.708;2022-08-18T17:46:03;24.80;99.90
28438;DHT22;15667;52.376;9.708;2022-08-18T17:48:43;24.80;99.90
28438;DHT22;15667;52.376;9.708;2022-08-18T17:51:25;24.80;99.90
28438;DHT22;15667;52.376;9.708;2022-08-18T17:54:34;24.70;99.90
28438;DHT22;15667;52.376;9.708;2022-08-18T17:57:12;24.40;99.90
28438;DHT22;15667;52.376;9.708;2022-08-18T18:02:22;24.00;99.90
28438;DHT22;15667;52.376;9.708;2022-08-18T18:04:50;24.00;99.90
28438;DHT22;15667;52.376;9.708;2022-08-18T18:10:12;24.00;99.90
28438;DHT22;15667;52.376;9.708;2022-08-18T18:12:39;23.80;99.90
28438;DHT22;15667;52.376;9.708;2022-08-18T18:15:08;23.90;99.90
28438;DHT22;15667;52.376;9.708;2022-08-18T18:17:41;24.00;99.90
28438;DHT22;15667;52.376;9.708;2022-08-18T18:20:34;24.00;99.90
28438;DHT22;15667;52.376;9.708;2022-08-18T18:25:42;24.00;99.90
28438;DHT22;15667;52.376;9.708;2022-08-18T18:28:28;24.00;99.90
28438;DHT22;15667;52.376;9.708;2022-08-18T18:30:59;24.00;99.90
28438;DHT22;15667;52.376;9.708;2022-08-18T18:33:41;23.80;99.90
28438;DHT22;15667;52.376;9.708;2022-08-18T18:36:06;23.90;99.90
28438;DHT22;15667;52.376;9.708;2022-08-18T18:38:38;23.80;99.90
28438;DHT22;15667;52.376;9.708;2022-08-18T18:43:44;23.80;99.90
28438;DHT22;15667;52.376;9.708;2022-08-18T18:49:16;23.90;99.90
28438;DHT22;15667;52.376;9.708;2022-08-18T18:56:55;23.90;99.90
28438;DHT22;15667;52.376;9.708;2022-08-18T19:02:35;23.70;99.90